createdAt,value
2018-06-23T00:00:25.171Z,80.61
2018-06-23T00:01:25.159Z,80.51
2018-06-23T00:02:25.133Z,80.70
2018-06-23T00:03:25.116Z,80.80
2018-06-23T00:04:25.100Z,80.70
2018-06-23T00:05:25.077Z,80.61
2018-06-23T00:06:25.061Z,80.32
2018-06-23T00:07:25.071Z,80.22
2018-06-23T00:08:25.030Z,80.13
2018-06-23T00:09:25.004Z,80.13
2018-06-23T00:10:24.985Z,79.85
2018-06-23T00:11:24.970Z,80.04
2018-06-23T00:12:24.952Z,80.32
2018-06-23T00:13:24.969Z,79.85
2018-06-23T00:14:24.965Z,80.22
2018-06-23T00:15:24.902Z,79.94
2018-06-23T00:16:24.882Z,80.22
2018-06-23T00:17:24.860Z,80.04
2018-06-23T00:18:24.841Z,80.32
2018-06-23T00:19:24.824Z,80.13
2018-06-23T00:20:24.816Z,80.32
2018-06-23T00:21:24.797Z,80.70
2018-06-23T00:22:24.769Z,80.61
2018-06-23T00:23:24.756Z,80.51
2018-06-23T00:24:24.755Z,80.70
2018-06-23T00:25:24.716Z,80.51
2018-06-23T00:26:24.715Z,80.32
2018-06-23T00:27:24.680Z,80.41
2018-06-23T00:28:24.663Z,80.51
2018-06-23T00:29:24.645Z,80.41
2018-06-23T00:30:24.626Z,80.70
2018-06-23T00:31:24.607Z,80.32
2018-06-23T00:32:24.598Z,80.70
2018-06-23T00:33:24.578Z,80.51
2018-06-23T00:34:24.554Z,80.70
2018-06-23T00:35:24.533Z,80.41
2018-06-23T00:36:24.526Z,80.51
2018-06-23T00:37:24.496Z,80.51
2018-06-23T00:38:24.479Z,80.61
2018-06-23T00:39:24.459Z,80.80
2018-06-23T00:40:24.441Z,80.90
2018-06-23T00:41:24.449Z,80.90
2018-06-23T00:42:24.405Z,80.99
2018-06-23T00:43:24.388Z,80.51
2018-06-23T00:44:24.375Z,80.51
2018-06-23T00:45:24.352Z,80.51
2018-06-23T00:46:24.332Z,80.51
2018-06-23T00:47:24.315Z,81.18
2018-06-23T00:48:24.298Z,81.14
2018-06-23T00:49:24.282Z,81.27
2018-06-23T00:50:24.263Z,80.99
2018-06-23T00:51:24.240Z,81.09
2018-06-23T00:52:24.227Z,80.70
2018-06-23T00:53:24.206Z,81.09
2018-06-23T00:54:24.209Z,81.14
2018-06-23T00:55:24.172Z,80.90
2018-06-23T00:56:24.160Z,81.27
2018-06-23T00:57:24.169Z,80.80
2018-06-23T00:58:24.118Z,80.70
2018-06-23T00:59:24.098Z,80.99
2018-06-23T01:00:24.084Z,81.04
2018-06-23T01:01:24.060Z,81.43
2018-06-23T01:02:24.039Z,81.81
2018-06-23T01:03:24.020Z,81.52
2018-06-23T01:04:24.005Z,81.90
2018-06-23T01:05:23.984Z,81.71
2018-06-23T01:06:23.969Z,81.18
2018-06-23T01:07:23.992Z,81.14
2018-06-23T01:08:23.941Z,80.85
2018-06-23T01:09:23.958Z,80.95
2018-06-23T01:10:23.896Z,81.24
2018-06-23T01:11:23.874Z,81.24
2018-06-23T01:12:23.861Z,81.24
2018-06-23T01:13:23.839Z,81.71
2018-06-23T01:14:23.817Z,81.81
2018-06-23T01:15:23.801Z,81.14
2018-06-23T01:16:23.787Z,81.71
2018-06-23T01:17:23.766Z,81.71
2018-06-23T01:18:23.746Z,81.81
2018-06-23T01:19:23.727Z,82.38
2018-06-23T01:20:23.709Z,81.90
2018-06-23T01:21:23.687Z,81.71
2018-06-23T01:22:23.675Z,81.52
2018-06-23T01:23:23.658Z,81.43
2018-06-23T01:24:23.638Z,81.71
2018-06-23T01:25:23.617Z,81.71
2018-06-23T01:26:23.599Z,81.81
2018-06-23T01:27:23.590Z,82.19
2018-06-23T01:28:23.561Z,82.00
2018-06-23T01:29:23.542Z,82.38
2018-06-23T01:30:23.524Z,81.90
2018-06-23T01:31:23.505Z,81.24
2018-06-23T01:32:23.491Z,81.71
2018-06-23T01:33:23.469Z,81.71
2018-06-23T01:34:23.452Z,81.71
2018-06-23T01:35:23.432Z,81.81
2018-06-23T01:36:23.420Z,81.81
2018-06-23T01:37:23.399Z,82.48
2018-06-23T01:38:23.377Z,81.90
2018-06-23T01:39:23.360Z,82.57
2018-06-23T01:40:23.342Z,81.81
2018-06-23T01:41:23.323Z,82.57
2018-06-23T01:42:23.302Z,82.19
2018-06-23T01:43:23.293Z,82.57
2018-06-23T01:44:23.307Z,82.38
2018-06-23T01:45:23.284Z,82.29
2018-06-23T01:46:23.249Z,82.38
2018-06-23T01:47:23.222Z,82.29
2018-06-23T01:48:23.236Z,82.57
2018-06-23T01:49:23.175Z,82.76
2018-06-23T01:50:23.154Z,82.57
2018-06-23T01:51:23.136Z,83.14
2018-06-23T01:52:23.125Z,82.29
2018-06-23T01:53:23.101Z,82.91
2018-06-23T01:54:23.078Z,82.72
2018-06-23T01:55:23.064Z,82.91
2018-06-23T01:56:23.046Z,82.95
2018-06-23T01:57:23.028Z,83.43
2018-06-23T01:58:23.007Z,82.95
2018-06-23T01:59:22.989Z,83.29
2018-06-23T02:00:22.971Z,83.20
2018-06-23T02:01:22.956Z,83.58
2018-06-23T02:02:22.932Z,83.58
2018-06-23T02:03:22.926Z,83.67
2018-06-23T02:04:22.897Z,83.96
2018-06-23T02:05:22.880Z,83.58
2018-06-23T02:06:22.858Z,83.96
2018-06-23T02:07:22.844Z,83.96
2018-06-23T02:08:22.823Z,83.67
2018-06-23T02:09:22.805Z,84.82
2018-06-23T02:10:22.783Z,84.44
2018-06-23T02:11:22.765Z,84.72
2018-06-23T02:12:22.749Z,84.53
2018-06-23T02:13:22.730Z,84.72
2018-06-23T02:14:22.710Z,84.72
2018-06-23T02:15:22.689Z,84.63
2018-06-23T02:16:22.675Z,84.72
2018-06-23T02:17:22.655Z,84.34
2018-06-23T02:18:22.635Z,84.63
2018-06-23T02:19:22.622Z,84.34
2018-06-23T02:20:23.429Z,84.34
2018-06-23T02:21:22.586Z,84.63
2018-06-23T02:22:22.560Z,85.11
2018-06-23T02:23:22.561Z,84.72
2018-06-23T02:24:22.526Z,84.63
2018-06-23T02:25:22.506Z,85.01
2018-06-23T02:26:22.484Z,84.82
2018-06-23T02:27:22.471Z,85.01
2018-06-23T02:28:22.459Z,84.30
2018-06-23T02:29:22.440Z,84.88
2018-06-23T02:30:22.410Z,85.11
2018-06-23T02:31:22.395Z,85.58
2018-06-23T02:32:22.380Z,85.16
2018-06-23T02:33:22.355Z,86.02
2018-06-23T02:34:22.335Z,85.35
2018-06-23T02:35:22.317Z,85.35
2018-06-23T02:36:22.316Z,85.39
2018-06-23T02:37:22.315Z,85.58
2018-06-23T02:38:22.263Z,85.49
2018-06-23T02:39:22.240Z,85.21
2018-06-23T02:40:22.221Z,85.39
2018-06-23T02:41:22.211Z,85.11
2018-06-23T02:42:22.184Z,85.01
2018-06-23T02:43:22.165Z,85.68
2018-06-23T02:44:22.150Z,85.68
2018-06-23T02:45:22.126Z,86.21
2018-06-23T02:46:22.110Z,86.21
2018-06-23T02:47:22.096Z,85.93
2018-06-23T02:48:22.082Z,86.49
2018-06-23T02:49:22.077Z,87.26
2018-06-23T02:50:22.033Z,87.16
2018-06-23T02:51:22.057Z,87.26
2018-06-23T02:52:22.013Z,87.35
2018-06-23T02:53:22.000Z,86.59
2018-06-23T02:54:21.955Z,87.35
2018-06-23T02:55:21.935Z,86.30
2018-06-23T02:56:21.924Z,86.78
2018-06-23T02:57:21.897Z,86.49
2018-06-23T02:58:21.877Z,87.26
2018-06-23T02:59:21.864Z,87.07
2018-06-23T03:00:21.842Z,87.64
2018-06-23T03:01:21.820Z,87.64
2018-06-23T03:02:21.799Z,87.35
2018-06-23T03:03:21.792Z,87.83
2018-06-23T03:04:21.770Z,87.83
2018-06-23T03:05:21.747Z,87.74
2018-06-23T03:06:21.731Z,87.45
2018-06-23T03:07:21.706Z,87.93
2018-06-23T03:08:21.688Z,87.64
2018-06-23T03:09:21.669Z,87.54
2018-06-23T03:10:21.646Z,87.83
2018-06-23T03:11:21.632Z,87.83
2018-06-23T03:12:21.608Z,87.83
2018-06-23T03:13:21.596Z,88.12
2018-06-23T03:14:21.575Z,87.93
2018-06-23T03:15:21.552Z,88.21
2018-06-23T03:16:21.531Z,88.02
2018-06-23T03:17:21.514Z,88.21
2018-06-23T03:18:21.494Z,88.12
2018-06-23T03:19:21.479Z,87.49
2018-06-23T03:20:21.457Z,87.74
2018-06-23T03:21:21.492Z,87.93
2018-06-23T03:22:21.416Z,87.93
2018-06-23T03:23:21.398Z,88.02
2018-06-23T03:24:21.382Z,88.12
2018-06-23T03:25:21.366Z,88.02
2018-06-23T03:26:21.338Z,87.93
2018-06-23T03:27:21.326Z,87.68
2018-06-23T03:28:21.301Z,87.78
2018-06-23T03:29:21.282Z,87.74
2018-06-23T03:30:21.279Z,87.59
2018-06-23T03:31:21.246Z,87.87
2018-06-23T03:32:21.228Z,87.74
2018-06-23T03:33:21.205Z,87.87
2018-06-23T03:34:21.194Z,87.68
2018-06-23T03:35:21.172Z,87.68
2018-06-23T03:36:21.148Z,87.40
2018-06-23T03:37:21.129Z,87.78
2018-06-23T03:38:21.113Z,87.97
2018-06-23T03:39:21.095Z,86.92
2018-06-23T03:40:21.072Z,86.92
2018-06-23T03:41:21.053Z,87.21
2018-06-23T03:42:21.033Z,86.63
2018-06-23T03:43:21.020Z,86.63
2018-06-23T03:44:21.003Z,87.02
2018-06-23T03:45:20.975Z,86.82
2018-06-23T03:46:20.962Z,87.30
2018-06-23T03:47:20.942Z,86.82
2018-06-23T03:48:20.944Z,86.44
2018-06-23T03:49:20.898Z,86.35
2018-06-23T03:50:20.881Z,86.54
2018-06-23T03:51:20.866Z,86.92
2018-06-23T03:52:20.844Z,87.02
2018-06-23T03:53:20.823Z,87.21
2018-06-23T03:54:20.806Z,86.92
2018-06-23T03:55:20.794Z,87.21
2018-06-23T03:56:20.768Z,87.02
2018-06-23T03:57:20.746Z,87.11
2018-06-23T03:58:20.739Z,87.11
2018-06-23T03:59:20.709Z,87.87
2018-06-23T04:00:20.690Z,87.68
2018-06-23T04:01:20.672Z,87.59
2018-06-23T04:02:20.655Z,87.97
2018-06-23T04:03:20.634Z,88.07
2018-06-23T04:04:20.620Z,88.16
2018-06-23T04:05:20.596Z,88.64
2018-06-23T04:06:20.591Z,88.54
2018-06-23T04:07:20.557Z,89.02
2018-06-23T04:08:20.546Z,88.92
2018-06-23T04:09:20.518Z,89.97
2018-06-23T04:10:20.500Z,90.36
2018-06-23T04:11:20.515Z,91.50
2018-06-23T04:12:20.461Z,92.07
2018-06-23T04:13:20.463Z,92.07
2018-06-23T04:14:20.429Z,92.26
2018-06-23T04:15:20.405Z,92.36
2018-06-23T04:16:20.387Z,92.26
2018-06-23T04:17:20.374Z,92.46
2018-06-23T04:18:20.366Z,92.36
2018-06-23T04:19:20.329Z,93.12
2018-06-23T04:20:20.314Z,92.74
2018-06-23T04:21:20.290Z,92.65
2018-06-23T04:22:20.275Z,92.93
2018-06-23T04:23:20.253Z,92.83
2018-06-23T04:24:20.232Z,92.83
2018-06-23T04:25:20.217Z,93.27
2018-06-23T04:26:20.199Z,93.41
2018-06-23T04:27:20.179Z,93.79
2018-06-23T04:28:20.164Z,93.60
2018-06-23T04:29:20.212Z,93.70
2018-06-23T04:30:20.122Z,93.02
2018-06-23T04:31:20.105Z,92.74
2018-06-23T04:32:20.085Z,93.02
2018-06-23T04:33:20.072Z,93.41
2018-06-23T04:34:20.044Z,93.41
2018-06-23T04:35:20.032Z,93.98
2018-06-23T04:36:20.008Z,93.60
2018-06-23T04:37:19.991Z,93.79
2018-06-23T04:38:19.973Z,93.60
2018-06-23T04:39:19.949Z,93.98
2018-06-23T04:40:19.931Z,93.70
2018-06-23T04:41:19.914Z,93.41
2018-06-23T04:42:19.909Z,93.51
2018-06-23T04:43:19.873Z,93.60
2018-06-23T04:44:19.856Z,93.98
2018-06-23T04:45:19.835Z,93.70
2018-06-23T04:46:19.822Z,93.31
2018-06-23T04:47:19.799Z,93.22
2018-06-23T04:48:19.779Z,93.22
2018-06-23T04:49:19.763Z,93.22
2018-06-23T04:50:19.749Z,93.02
2018-06-23T04:51:19.720Z,93.26
2018-06-23T04:52:19.704Z,92.83
2018-06-23T04:53:19.690Z,93.60
2018-06-23T04:54:19.673Z,93.65
2018-06-23T04:55:19.647Z,93.60
2018-06-23T04:56:19.628Z,93.65
2018-06-23T04:57:19.610Z,93.60
2018-06-23T04:58:19.588Z,93.98
2018-06-23T04:59:19.572Z,94.93
2018-06-23T05:00:19.560Z,94.74
2018-06-23T05:01:19.591Z,95.32
2018-06-23T05:02:19.513Z,95.41
2018-06-23T05:03:19.497Z,95.79
2018-06-23T05:04:19.511Z,95.89
2018-06-23T05:05:19.468Z,95.61
2018-06-23T05:06:19.436Z,95.51
2018-06-23T05:07:19.424Z,95.61
2018-06-23T05:08:19.401Z,95.61
2018-06-23T05:09:19.383Z,94.74
2018-06-23T05:10:19.360Z,95.32
2018-06-23T05:11:19.343Z,94.93
2018-06-23T05:12:19.334Z,95.03
2018-06-23T05:13:19.311Z,95.12
2018-06-23T05:14:19.287Z,95.27
2018-06-23T05:15:19.267Z,94.84
2018-06-23T05:16:19.248Z,94.74
2018-06-23T05:17:19.232Z,94.46
2018-06-23T05:18:19.258Z,94.93
2018-06-23T05:19:19.199Z,95.22
2018-06-23T05:20:19.238Z,94.98
2018-06-23T05:21:19.154Z,94.84
2018-06-23T05:22:19.134Z,94.65
2018-06-23T05:23:19.117Z,94.93
2018-06-23T05:24:19.096Z,94.74
2018-06-23T05:25:19.079Z,94.89
2018-06-23T05:26:19.071Z,94.84
2018-06-23T05:27:19.046Z,95.12
2018-06-23T05:28:19.022Z,95.03
2018-06-23T05:29:19.005Z,94.93
2018-06-23T05:30:18.989Z,95.03
2018-06-23T05:31:18.990Z,95.27
2018-06-23T05:32:18.947Z,94.89
2018-06-23T05:33:18.933Z,94.60
2018-06-23T05:34:18.909Z,94.89
2018-06-23T05:35:18.908Z,94.41
2018-06-23T05:36:18.876Z,94.41
2018-06-23T05:37:18.854Z,94.12
2018-06-23T05:38:18.836Z,93.84
2018-06-23T05:39:18.819Z,93.84
2018-06-23T05:40:18.799Z,94.12
2018-06-23T05:41:18.778Z,94.22
2018-06-23T05:42:18.764Z,94.60
2018-06-23T05:43:18.739Z,94.70
2018-06-23T05:44:18.733Z,94.51
2018-06-23T05:45:18.703Z,94.41
2018-06-23T05:46:18.691Z,94.03
2018-06-23T05:47:18.665Z,94.51
2018-06-23T05:48:18.647Z,94.03
2018-06-23T05:49:18.629Z,93.74
2018-06-23T05:50:18.608Z,93.84
2018-06-23T05:51:18.638Z,93.70
2018-06-23T05:52:18.572Z,93.88
2018-06-23T05:53:18.553Z,92.93
2018-06-23T05:54:18.537Z,92.83
2018-06-23T05:55:18.517Z,93.12
2018-06-23T05:56:18.497Z,92.93
2018-06-23T05:57:18.478Z,92.83
2018-06-23T05:58:18.459Z,92.36
2018-06-23T05:59:18.440Z,92.16
2018-06-23T06:00:18.423Z,91.97
2018-06-23T06:01:18.406Z,91.59
2018-06-23T06:02:18.385Z,91.69
2018-06-23T06:03:18.365Z,91.11
2018-06-23T06:04:18.350Z,90.92
2018-06-23T06:05:18.333Z,91.02
2018-06-23T06:06:18.310Z,90.73
2018-06-23T06:07:18.297Z,91.30
2018-06-23T06:08:18.274Z,90.92
2018-06-23T06:09:18.261Z,90.83
2018-06-23T06:10:18.249Z,90.83
2018-06-23T06:11:18.219Z,90.20
2018-06-23T06:12:18.209Z,90.16
2018-06-23T06:13:18.185Z,89.11
2018-06-23T06:14:18.173Z,90.11
2018-06-23T06:15:18.151Z,89.68
2018-06-23T06:16:18.151Z,89.73
2018-06-23T06:17:18.133Z,89.59
2018-06-23T06:18:18.150Z,89.25
2018-06-23T06:19:18.100Z,89.25
2018-06-23T06:20:18.066Z,88.96
2018-06-23T06:21:18.045Z,88.20
2018-06-23T06:22:18.045Z,87.82
2018-06-23T06:23:18.009Z,88.01
2018-06-23T06:24:17.985Z,88.77
2018-06-23T06:25:17.966Z,87.82
2018-06-23T06:26:18.006Z,87.15
2018-06-23T06:27:17.966Z,86.76
2018-06-23T06:29:17.892Z,87.05
2018-06-23T06:30:17.913Z,86.71
2018-06-23T06:31:18.032Z,86.04
2018-06-23T06:32:17.868Z,85.38
2018-06-23T06:33:17.821Z,86.23
2018-06-23T06:34:17.800Z,85.66
2018-06-23T06:35:17.780Z,85.85
2018-06-23T06:36:17.766Z,85.47
2018-06-23T06:37:17.748Z,85.47
2018-06-23T06:38:17.729Z,85.57
2018-06-23T06:39:17.711Z,85.57
2018-06-23T06:40:17.690Z,86.04
2018-06-23T06:41:17.674Z,85.75
2018-06-23T06:42:17.656Z,85.57
2018-06-23T06:43:17.638Z,84.84
2018-06-23T06:44:17.619Z,84.17
2018-06-23T06:45:17.613Z,84.46
2018-06-23T06:46:17.582Z,83.79
2018-06-23T06:47:17.572Z,83.69
2018-06-23T06:48:17.549Z,83.46
2018-06-23T06:49:17.562Z,83.89
2018-06-23T06:50:17.513Z,83.79
2018-06-23T06:51:17.496Z,83.03
2018-06-23T06:52:17.495Z,83.89
2018-06-23T06:53:17.462Z,83.79
2018-06-23T06:54:17.442Z,83.22
2018-06-23T06:55:17.446Z,83.89
2018-06-23T06:56:17.442Z,83.65
2018-06-23T06:57:17.439Z,83.56
2018-06-23T06:58:17.396Z,83.84
2018-06-23T06:59:17.400Z,83.98
2018-06-23T07:00:18.065Z,83.69
2018-06-23T07:01:17.363Z,83.17
2018-06-23T07:02:17.310Z,82.70
2018-06-23T07:03:17.346Z,83.37
2018-06-23T07:04:17.273Z,83.65
2018-06-23T07:05:17.261Z,83.65
2018-06-23T07:06:17.294Z,83.84
2018-06-23T07:07:17.217Z,83.75
2018-06-23T07:08:17.214Z,83.37
2018-06-23T07:09:17.252Z,83.27
2018-06-23T07:10:17.160Z,82.89
2018-06-23T07:11:17.167Z,83.31
2018-06-23T07:12:17.122Z,83.79
2018-06-23T07:13:17.103Z,83.50
2018-06-23T07:14:17.089Z,83.12
2018-06-23T07:15:17.072Z,82.83
2018-06-23T07:16:17.053Z,83.31
2018-06-23T07:17:17.049Z,82.93
2018-06-23T07:18:17.023Z,82.35
2018-06-23T07:19:17.000Z,81.68
2018-06-23T07:20:16.981Z,81.88
2018-06-23T07:21:16.967Z,81.78
2018-06-23T07:22:16.948Z,81.97
2018-06-23T07:23:16.932Z,81.25
2018-06-23T07:24:16.913Z,80.48
2018-06-23T07:25:16.910Z,80.77
2018-06-23T07:26:16.879Z,80.38
2018-06-23T07:27:16.861Z,80.67
2018-06-23T07:28:16.843Z,80.58
2018-06-23T07:29:16.824Z,80.48
2018-06-23T07:30:16.829Z,80.48
2018-06-23T07:31:16.792Z,80.00
2018-06-23T07:32:16.782Z,79.72
2018-06-23T07:33:16.752Z,79.62
2018-06-23T07:34:16.758Z,80.10
2018-06-23T07:35:16.949Z,79.95
2018-06-23T07:36:16.731Z,79.05
2018-06-23T07:37:16.694Z,77.42
2018-06-23T07:38:16.696Z,76.94
2018-06-23T07:39:16.673Z,77.13
2018-06-23T07:40:16.635Z,76.89
2018-06-23T07:41:16.616Z,75.83
2018-06-23T07:42:16.626Z,76.40
2018-06-23T07:43:16.596Z,76.60
2018-06-23T07:44:16.565Z,75.93
2018-06-23T07:45:16.549Z,74.68
2018-06-23T07:46:16.533Z,74.33
2018-06-23T07:47:16.514Z,73.47
2018-06-23T07:48:16.496Z,73.38
2018-06-23T07:49:16.478Z,72.80
2018-06-23T07:50:16.461Z,72.52
2018-06-23T07:51:16.449Z,72.71
2018-06-23T07:52:16.427Z,73.28
2018-06-23T07:53:16.412Z,72.61
2018-06-23T07:54:16.397Z,72.99
2018-06-23T07:55:16.376Z,71.66
2018-06-23T07:56:16.448Z,71.27
2018-06-23T07:57:16.343Z,70.70
2018-06-23T07:58:16.324Z,70.50
2018-06-23T07:59:16.313Z,70.70
2018-06-23T08:00:16.291Z,70.70
2018-06-23T08:01:16.274Z,71.56
2018-06-23T08:02:16.257Z,70.70
2018-06-23T08:03:16.242Z,70.21
2018-06-23T08:04:16.226Z,69.74
2018-06-23T08:05:16.208Z,69.35
2018-06-23T08:06:16.191Z,69.17
2018-06-23T08:07:16.175Z,68.68
2018-06-23T08:08:16.159Z,69.45
2018-06-23T08:09:16.146Z,69.45
2018-06-23T08:10:16.121Z,68.97
2018-06-23T08:11:16.107Z,70.03
2018-06-23T08:12:16.091Z,69.74
2018-06-23T08:13:16.074Z,69.93
2018-06-23T08:14:16.066Z,68.87
2018-06-23T08:15:16.040Z,69.35
2018-06-23T08:16:16.022Z,69.07
2018-06-23T08:17:16.005Z,68.87
2018-06-23T08:18:16.007Z,69.45
2018-06-23T08:19:15.970Z,69.77
2018-06-23T08:20:15.956Z,68.78
2018-06-23T08:21:15.953Z,68.81
2018-06-23T08:22:15.923Z,69.20
2018-06-23T08:23:15.904Z,68.43
2018-06-23T08:24:15.888Z,68.72
2018-06-23T08:25:15.873Z,67.76
2018-06-23T08:26:15.884Z,67.57
2018-06-23T08:27:15.838Z,67.76
2018-06-23T08:28:15.820Z,67.18
2018-06-23T08:29:15.801Z,67.57
2018-06-23T08:30:15.789Z,68.05
2018-06-23T08:31:15.769Z,68.24
2018-06-23T08:32:15.753Z,69.01
2018-06-23T08:33:15.739Z,68.81
2018-06-23T08:34:15.723Z,67.47
2018-06-23T08:35:15.706Z,67.47
2018-06-23T08:36:15.689Z,67.85
2018-06-23T08:37:15.670Z,67.99
2018-06-23T08:38:15.657Z,67.47
2018-06-23T08:39:15.641Z,66.80
2018-06-23T08:40:15.619Z,67.95
2018-06-23T08:41:15.604Z,66.99
2018-06-23T08:42:15.588Z,67.69
2018-06-23T08:43:15.572Z,67.18
2018-06-23T08:44:15.554Z,67.18
2018-06-23T08:45:15.534Z,67.09
2018-06-23T08:46:15.520Z,67.09
2018-06-23T08:47:15.504Z,67.41
2018-06-23T08:48:15.491Z,67.95
2018-06-23T08:49:15.536Z,66.80
2018-06-23T08:50:15.455Z,67.57
2018-06-23T08:51:15.445Z,66.89
2018-06-23T08:52:15.422Z,67.28
2018-06-23T08:53:15.404Z,67.57
2018-06-23T08:54:15.386Z,67.02
2018-06-23T08:55:15.413Z,67.09
2018-06-23T08:56:15.358Z,67.38
2018-06-23T08:57:15.344Z,67.38
2018-06-23T08:58:15.327Z,66.89
2018-06-23T08:59:15.304Z,68.24
2018-06-23T09:00:15.295Z,67.95
2018-06-23T09:01:15.273Z,67.95
2018-06-23T09:02:15.278Z,68.14
2018-06-23T09:03:15.237Z,68.33
2018-06-23T09:04:15.228Z,68.62
2018-06-23T09:05:15.266Z,68.81
2018-06-23T09:06:15.188Z,69.10
2018-06-23T09:07:15.172Z,68.24
2018-06-23T09:08:15.197Z,67.95
2018-06-23T09:09:15.140Z,67.95
2018-06-23T09:10:15.164Z,68.05
2018-06-23T09:11:15.178Z,68.05
2018-06-23T09:12:15.123Z,66.51
2018-06-23T09:13:15.080Z,64.40
2018-06-23T09:14:15.055Z,65.11
2018-06-23T09:15:15.040Z,65.20
2018-06-23T09:16:15.025Z,65.88
2018-06-23T09:17:15.007Z,65.78
2018-06-23T09:18:14.998Z,65.94
2018-06-23T09:19:14.974Z,66.22
2018-06-23T09:20:14.956Z,66.35
2018-06-23T09:21:14.941Z,65.11
2018-06-23T09:22:14.938Z,65.39
2018-06-23T09:23:14.955Z,66.45
2018-06-23T09:24:14.890Z,66.06
2018-06-23T09:25:14.892Z,66.35
2018-06-23T09:26:14.891Z,65.88
2018-06-23T09:27:14.847Z,65.97
2018-06-23T09:28:14.839Z,65.68
2018-06-23T09:29:14.814Z,66.35
2018-06-23T09:30:14.793Z,66.55
2018-06-23T09:31:14.776Z,66.06
2018-06-23T09:32:14.758Z,65.78
2018-06-23T09:33:14.743Z,65.88
2018-06-23T09:34:14.724Z,65.78
2018-06-23T09:35:14.709Z,65.20
2018-06-23T09:36:14.695Z,65.20
2018-06-23T09:37:14.680Z,65.97
2018-06-23T09:38:14.660Z,65.97
2018-06-23T09:39:14.647Z,66.35
2018-06-23T09:40:14.636Z,66.19
2018-06-23T09:41:14.612Z,64.47
2018-06-23T09:42:14.593Z,64.76
2018-06-23T09:43:14.578Z,64.76
2018-06-23T09:44:14.571Z,64.56
2018-06-23T09:45:14.546Z,65.43
2018-06-23T09:46:14.618Z,64.47
2018-06-23T09:47:14.514Z,63.70
2018-06-23T09:48:14.513Z,63.99
2018-06-23T09:49:14.485Z,65.14
2018-06-23T09:50:14.466Z,65.23
2018-06-23T09:51:14.450Z,65.62
2018-06-23T09:52:14.434Z,65.14
2018-06-23T09:53:14.418Z,64.47
2018-06-23T09:54:14.400Z,64.76
2018-06-23T09:55:14.383Z,65.43
2018-06-23T09:56:14.385Z,65.23
2018-06-23T09:57:14.352Z,65.52
2018-06-23T09:58:14.337Z,63.99
2018-06-23T09:59:14.320Z,63.32
2018-06-23T10:00:14.303Z,63.99
2018-06-23T10:01:14.288Z,63.70
2018-06-23T10:02:14.275Z,64.09
2018-06-23T10:03:14.303Z,63.60
2018-06-23T10:04:14.241Z,63.70
2018-06-23T10:05:14.222Z,63.70
2018-06-23T10:06:14.210Z,64.66
2018-06-23T10:07:14.226Z,64.37
2018-06-23T10:08:14.179Z,64.18
2018-06-23T10:09:14.160Z,63.70
2018-06-23T10:10:14.150Z,63.89
2018-06-23T10:11:14.130Z,62.84
2018-06-23T10:12:14.118Z,62.07
2018-06-23T10:13:14.093Z,61.91
2018-06-23T10:14:14.079Z,62.45
2018-06-23T10:15:14.083Z,61.88
2018-06-23T10:16:14.062Z,61.59
2018-06-23T10:17:14.045Z,62.16
2018-06-23T10:18:14.017Z,62.07
2018-06-23T10:19:14.043Z,62.01
2018-06-23T10:20:13.994Z,62.01
2018-06-23T10:21:13.969Z,61.91
2018-06-23T10:22:13.949Z,62.29
2018-06-23T10:23:13.933Z,62.10
2018-06-23T10:24:13.918Z,63.06
2018-06-23T10:25:13.905Z,61.72
2018-06-23T10:26:13.890Z,61.24
2018-06-23T10:27:13.878Z,61.52
2018-06-23T10:28:13.855Z,62.19
2018-06-23T10:29:13.839Z,62.87
2018-06-23T10:30:13.829Z,62.29
2018-06-23T10:31:13.804Z,62.68
2018-06-23T10:32:13.789Z,62.87
2018-06-23T10:33:13.774Z,62.68
2018-06-23T10:34:13.761Z,63.35
2018-06-23T10:35:13.743Z,63.73
2018-06-23T10:36:13.732Z,62.96
2018-06-23T10:37:13.715Z,61.27
2018-06-23T10:38:13.732Z,61.17
2018-06-23T10:39:13.685Z,60.31
2018-06-23T10:40:13.662Z,60.50
2018-06-23T10:41:13.653Z,61.27
2018-06-23T10:42:13.634Z,61.65
2018-06-23T10:43:13.628Z,61.55
2018-06-23T10:44:13.604Z,60.40
2018-06-23T10:45:13.583Z,60.40
2018-06-23T10:46:13.573Z,62.23
2018-06-23T10:47:13.553Z,62.52
2018-06-23T10:48:13.535Z,59.83
2018-06-23T10:49:13.527Z,59.44
2018-06-23T10:50:13.555Z,59.92
2018-06-23T10:51:13.505Z,59.34
2018-06-23T10:52:13.482Z,59.47
2018-06-23T10:53:13.460Z,58.70
2018-06-23T10:54:13.501Z,58.13
2018-06-23T10:55:13.474Z,57.75
2018-06-23T10:56:13.413Z,58.25
2018-06-23T10:57:13.400Z,58.25
2018-06-23T10:58:13.386Z,58.45
2018-06-23T10:59:13.367Z,56.91
2018-06-23T11:00:13.359Z,56.14
2018-06-23T11:01:13.336Z,57.26
2018-06-23T11:02:13.333Z,57.07
2018-06-23T11:03:13.303Z,57.93
2018-06-23T11:04:13.291Z,58.03
2018-06-23T11:05:13.272Z,58.61
2018-06-23T11:06:13.257Z,58.96
2018-06-23T11:07:13.244Z,58.89
2018-06-23T11:08:13.231Z,57.93
2018-06-23T11:09:13.227Z,58.42
2018-06-23T11:10:13.219Z,58.22
2018-06-23T11:11:13.186Z,57.03
2018-06-23T11:12:13.163Z,57.29
2018-06-23T11:13:13.146Z,56.38
2018-06-23T11:14:13.132Z,55.33
2018-06-23T11:15:13.118Z,54.78
2018-06-23T11:16:13.101Z,52.69
2018-06-23T11:17:13.123Z,52.20
2018-06-23T11:18:13.097Z,53.07
2018-06-23T11:19:13.057Z,53.55
2018-06-23T11:20:13.047Z,53.07
2018-06-23T11:21:13.027Z,53.23
2018-06-23T11:22:13.018Z,52.73
2018-06-23T11:23:12.999Z,53.69
2018-06-23T11:24:13.045Z,53.38
2018-06-23T11:25:12.971Z,54.63
2018-06-23T11:26:12.980Z,55.66
2018-06-23T11:27:12.943Z,56.14
2018-06-23T11:28:12.955Z,56.71
2018-06-23T11:29:12.917Z,57.29
2018-06-23T11:30:12.902Z,56.43
2018-06-23T11:31:12.887Z,54.91
2018-06-23T11:32:12.931Z,54.08
2018-06-23T11:33:12.862Z,54.08
2018-06-23T11:34:12.858Z,53.59
2018-06-23T11:35:12.840Z,52.92
2018-06-23T11:36:12.818Z,53.02
2018-06-23T11:37:12.798Z,53.59
2018-06-23T11:38:12.787Z,53.50
2018-06-23T11:39:12.775Z,52.61
2018-06-23T11:40:12.762Z,53.76
2018-06-23T11:41:12.792Z,54.53
2018-06-23T11:42:12.743Z,56.43
2018-06-23T11:43:12.712Z,56.52
2018-06-23T11:44:12.709Z,56.71
2018-06-23T11:45:12.683Z,56.62
2018-06-23T11:46:12.678Z,56.33
2018-06-23T11:47:12.661Z,56.14
2018-06-23T11:48:12.647Z,56.49
2018-06-23T11:49:12.642Z,56.01
2018-06-23T11:50:12.616Z,56.40
2018-06-23T11:51:12.596Z,56.11
2018-06-23T11:52:12.689Z,57.07
2018-06-23T11:53:12.607Z,57.26
2018-06-23T11:54:12.556Z,56.88
2018-06-23T11:55:12.540Z,57.84
2018-06-23T11:56:12.535Z,56.43
2018-06-23T11:57:12.506Z,56.43
2018-06-23T11:58:12.490Z,55.85
2018-06-23T11:59:12.476Z,56.33
2018-06-23T12:00:12.465Z,55.76
2018-06-23T12:01:12.485Z,54.05
2018-06-23T12:02:12.431Z,53.96
2018-06-23T12:03:12.475Z,54.17
2018-06-23T12:04:12.448Z,53.11
2018-06-23T12:05:12.388Z,53.05
2018-06-23T12:06:12.372Z,51.43
2018-06-23T12:07:12.367Z,51.36
2018-06-23T12:08:12.366Z,51.56
2018-06-23T12:09:12.405Z,50.71
2018-06-23T12:10:12.314Z,49.65
2018-06-23T12:11:12.303Z,50.69
2018-06-23T12:12:12.291Z,51.36
2018-06-23T12:13:12.281Z,51.75
2018-06-23T12:14:12.278Z,51.17
2018-06-23T12:15:12.253Z,52.01
2018-06-23T12:16:12.239Z,51.62
2018-06-23T12:17:12.233Z,51.92
2018-06-23T12:18:12.218Z,51.89
2018-06-23T12:19:12.201Z,52.08
2018-06-23T12:20:12.225Z,51.92
2018-06-23T12:21:12.172Z,51.65
2018-06-23T12:22:12.182Z,51.36
2018-06-23T12:23:12.148Z,51.65
2018-06-23T12:24:12.146Z,51.46
2018-06-23T12:25:12.126Z,51.20
2018-06-23T12:26:12.120Z,50.84
2018-06-23T12:27:12.100Z,50.35
2018-06-23T12:28:12.087Z,50.54
2018-06-23T12:29:12.076Z,49.51
2018-06-23T12:30:12.066Z,47.87
2018-06-23T12:31:12.061Z,47.45
2018-06-23T12:32:12.042Z,47.45
2018-06-23T12:33:12.031Z,47.07
2018-06-23T12:34:12.043Z,46.90
2018-06-23T12:35:12.017Z,47.19
2018-06-23T12:36:12.006Z,47.38
2018-06-23T12:37:11.991Z,47.67
2018-06-23T12:38:11.986Z,47.77
2018-06-23T12:39:11.972Z,46.61
2018-06-23T12:40:11.960Z,47.48
2018-06-23T12:41:12.002Z,46.71
2018-06-23T12:42:11.946Z,47.58
2018-06-23T12:43:11.938Z,47.70
2018-06-23T12:44:11.923Z,47.41
2018-06-23T12:45:11.912Z,48.37
2018-06-23T12:46:11.909Z,48.47
2018-06-23T12:47:11.900Z,48.66
2018-06-23T12:48:11.892Z,47.89
2018-06-23T12:49:11.879Z,47.60
2018-06-23T12:50:11.869Z,47.50
2018-06-23T12:51:11.861Z,47.38
2018-06-23T12:52:11.853Z,48.13
2018-06-23T12:53:11.843Z,48.61